Lancelin, Australia
Current Conditions -  °F | °C
As of 12:00 PM on Friday 19 Dec 2014 (Local Time) from YPEA Reporting Station
Clear Clear  
Wind Chill: 97°   Ceiling: Unl
Heat Index: 97°   Visibility: 6mi
Dew Point: 48°   Wind: 8mph
Humidity: 19%   Direction: 80°E
Pressure: 29.8"   Gusts: NA
Location:  31.02°S, 115.33°E
Report Text: YPEA 190400Z AUTO 08007KT 9999 // NCD 36/09 Q1009
Loading
Personal Weather Stations






























Interactive Weather Map New forecast layout! Learn more

10-Day Weather Forecast

Advertisements
Track Severe Weather on mobile